createdAt,value
2019-03-13T00:00:36.659Z,8.60
2019-03-13T00:03:05.878Z,8.50
2019-03-13T00:05:34.987Z,8.40
2019-03-13T00:08:04.273Z,8.40
2019-03-13T00:10:33.449Z,8.20
2019-03-13T00:13:02.538Z,7.90
2019-03-13T00:15:31.477Z,7.60
2019-03-13T00:18:00.809Z,7.40
2019-03-13T00:20:30.011Z,7.40
2019-03-13T00:22:59.039Z,7.20
2019-03-13T00:25:28.215Z,7.10
2019-03-13T00:27:57.399Z,6.80
2019-03-13T00:30:26.472Z,6.60
2019-03-13T00:32:55.270Z,6.50
2019-03-13T00:35:24.048Z,6.40
2019-03-13T00:37:53.080Z,6.40
2019-03-13T00:40:22.195Z,6.30
2019-03-13T00:42:51.014Z,6.30
2019-03-13T00:45:19.815Z,6.30
2019-03-13T00:47:48.920Z,6.30
2019-03-13T00:50:27.043Z,6.20
2019-03-13T00:52:55.991Z,6.20
2019-03-13T00:55:25.407Z,6.10
2019-03-13T00:57:54.676Z,6.00
2019-03-13T01:00:42.926Z,5.90
2019-03-13T01:03:29.110Z,5.90
2019-03-13T01:06:02.079Z,5.80
2019-03-13T01:08:31.419Z,5.80
2019-03-13T01:11:00.808Z,5.70
2019-03-13T01:13:30.077Z,5.70
2019-03-13T01:15:59.203Z,5.70
2019-03-13T01:18:28.474Z,5.60
2019-03-13T01:20:57.280Z,5.50
2019-03-13T01:23:26.072Z,5.40
2019-03-13T01:25:55.520Z,5.40
2019-03-13T01:28:24.806Z,5.30
2019-03-13T01:31:02.534Z,5.30
2019-03-13T01:33:31.574Z,5.20
2019-03-13T01:36:02.806Z,5.00
2019-03-13T01:38:31.735Z,5.00
2019-03-13T01:41:00.803Z,4.90
2019-03-13T01:43:29.912Z,4.80
2019-03-13T01:45:58.694Z,4.70
2019-03-13T01:48:27.519Z,4.60
2019-03-13T01:50:56.783Z,4.50
2019-03-13T01:53:26.107Z,4.30
2019-03-13T01:55:55.020Z,4.20
2019-03-13T01:58:23.867Z,4.10
2019-03-13T02:00:52.894Z,4.00
2019-03-13T02:03:21.850Z,4.00
2019-03-13T02:05:50.889Z,3.90
2019-03-13T02:08:20.002Z,3.90
2019-03-13T02:10:49.014Z,4.00
2019-03-13T02:13:18.088Z,4.00
2019-03-13T02:15:47.201Z,4.00
2019-03-13T02:18:16.246Z,4.00
2019-03-13T02:20:45.675Z,4.00
2019-03-13T02:23:14.471Z,4.00
2019-03-13T02:25:43.750Z,4.10
2019-03-13T02:28:13.062Z,4.10
2019-03-13T02:30:42.452Z,4.00
2019-03-13T02:33:11.662Z,3.90
2019-03-13T02:35:40.700Z,3.80
2019-03-13T02:38:09.498Z,3.70
2019-03-13T02:40:38.295Z,3.50
2019-03-13T02:43:07.403Z,3.40
2019-03-13T02:45:36.259Z,3.50
2019-03-13T02:48:05.641Z,3.60
2019-03-13T02:50:34.432Z,3.70
2019-03-13T02:53:03.571Z,3.70
2019-03-13T02:55:32.700Z,3.80
2019-03-13T02:58:01.964Z,3.80
2019-03-13T03:00:49.801Z,3.80
2019-03-13T03:03:30.776Z,3.80
2019-03-13T03:06:00.196Z,3.80
2019-03-13T03:08:29.231Z,3.80
2019-03-13T03:10:58.820Z,3.80
2019-03-13T03:13:27.604Z,3.90
2019-03-13T03:15:56.628Z,3.90
2019-03-13T03:18:25.901Z,3.90
2019-03-13T03:20:54.684Z,3.90
2019-03-13T03:23:24.213Z,3.90
2019-03-13T03:25:53.571Z,3.90
2019-03-13T03:28:22.867Z,3.90
2019-03-13T03:30:51.878Z,3.90
2019-03-13T03:33:21.203Z,3.90
2019-03-13T03:35:50.086Z,3.90
2019-03-13T03:38:19.112Z,3.90
2019-03-13T03:40:47.891Z,3.90
2019-03-13T03:43:17.021Z,3.90
2019-03-13T03:45:46.057Z,3.90
2019-03-13T03:48:15.338Z,3.90
2019-03-13T03:50:44.390Z,3.90
2019-03-13T03:53:13.239Z,3.90
2019-03-13T03:55:42.338Z,3.70
2019-03-13T03:58:11.627Z,3.50
2019-03-13T04:00:41.065Z,3.40
2019-03-13T04:03:09.949Z,3.30
2019-03-13T04:05:38.931Z,3.20
2019-03-13T04:08:08.010Z,3.30
2019-03-13T04:10:37.054Z,3.30
2019-03-13T04:13:06.252Z,3.40
2019-03-13T04:15:35.451Z,3.30
2019-03-13T04:18:04.480Z,3.30
2019-03-13T04:20:33.586Z,3.20
2019-03-13T04:23:02.619Z,3.20
2019-03-13T04:25:35.896Z,3.20
2019-03-13T04:28:05.919Z,3.30
2019-03-13T04:30:35.032Z,3.30
2019-03-13T04:33:03.815Z,3.30
2019-03-13T04:35:32.930Z,3.40
2019-03-13T04:38:01.975Z,3.40
2019-03-13T04:40:31.096Z,3.40
2019-03-13T04:42:59.964Z,3.40
2019-03-13T04:45:29.084Z,3.30
2019-03-13T04:47:58.355Z,3.30
2019-03-13T04:50:27.389Z,3.40
2019-03-13T04:52:56.439Z,3.00
2019-03-13T04:55:25.947Z,2.80
2019-03-13T04:57:54.991Z,2.60
2019-03-13T05:00:24.520Z,2.50
2019-03-13T05:02:53.789Z,2.50
2019-03-13T05:05:57.502Z,2.50
2019-03-13T05:08:44.582Z,2.50
2019-03-13T05:11:03.036Z,2.40
2019-03-13T05:13:32.054Z,2.40
2019-03-13T05:16:01.174Z,2.30
2019-03-13T05:18:30.200Z,2.20
2019-03-13T05:20:59.237Z,2.10
2019-03-13T05:23:28.276Z,2.00
2019-03-13T05:25:57.423Z,2.10
2019-03-13T05:28:26.362Z,2.20
2019-03-13T05:30:55.722Z,2.30
2019-03-13T05:33:24.747Z,2.40
2019-03-13T05:35:53.769Z,2.50
2019-03-13T05:38:23.164Z,2.50
2019-03-13T05:40:52.346Z,2.50
2019-03-13T05:43:21.605Z,2.60
2019-03-13T05:45:50.416Z,2.70
2019-03-13T05:48:19.440Z,2.70
2019-03-13T05:50:48.591Z,2.80
2019-03-13T05:53:17.648Z,2.90
2019-03-13T05:55:46.957Z,2.90
2019-03-13T05:58:16.183Z,2.80
2019-03-13T06:00:45.654Z,2.80
2019-03-13T06:03:14.689Z,2.80
2019-03-13T06:05:43.714Z,2.70
2019-03-13T06:08:12.755Z,2.60
2019-03-13T06:10:41.793Z,2.60
2019-03-13T06:13:10.826Z,2.60
2019-03-13T06:15:40.376Z,2.60
2019-03-13T06:18:09.968Z,2.50
2019-03-13T06:20:38.910Z,2.40
2019-03-13T06:23:08.208Z,2.40
2019-03-13T06:25:37.259Z,2.50
2019-03-13T06:28:06.487Z,2.60
2019-03-13T06:30:35.314Z,2.60
2019-03-13T06:33:04.117Z,2.60
2019-03-13T06:35:33.015Z,2.70
2019-03-13T06:38:01.816Z,2.70
2019-03-13T06:40:30.624Z,2.70
2019-03-13T06:42:59.591Z,2.90
2019-03-13T06:45:28.554Z,3.10
2019-03-13T06:47:57.676Z,3.20
2019-03-13T06:50:26.684Z,3.60
2019-03-13T06:52:55.528Z,4.00
2019-03-13T06:55:24.581Z,4.40
2019-03-13T06:57:53.625Z,4.90
2019-03-13T07:00:37.722Z,5.10
2019-03-13T07:03:29.314Z,5.10
2019-03-13T07:06:29.680Z,5.20
2019-03-13T07:09:17.134Z,5.00
2019-03-13T07:12:03.094Z,5.10
2019-03-13T07:14:37.504Z,5.20
2019-03-13T07:17:15.606Z,5.20
2019-03-13T07:20:06.507Z,5.00
2019-03-13T07:22:53.263Z,4.80
2019-03-13T07:25:28.800Z,4.60
2019-03-13T07:28:10.525Z,4.60
2019-03-13T07:30:50.803Z,4.60
2019-03-13T07:33:37.103Z,4.70
2019-03-13T07:36:23.409Z,4.90
2019-03-13T07:39:15.229Z,5.10
2019-03-13T07:42:12.290Z,5.20
2019-03-13T07:45:01.801Z,5.10
2019-03-13T07:47:48.344Z,5.00
2019-03-13T07:50:34.952Z,4.90
2019-03-13T07:53:21.472Z,4.80
2019-03-13T07:56:06.768Z,4.80
2019-03-13T07:58:43.864Z,4.70
2019-03-13T08:01:25.606Z,4.60
2019-03-13T08:04:00.043Z,4.60
2019-03-13T08:06:45.085Z,4.60
2019-03-13T08:09:31.620Z,4.70
2019-03-13T08:12:37.938Z,4.70
2019-03-13T08:15:19.360Z,4.90
2019-03-13T08:18:13.558Z,4.80
2019-03-13T08:21:00.076Z,4.90
2019-03-13T08:23:47.964Z,4.90
2019-03-13T08:26:31.828Z,5.00
2019-03-13T08:29:21.971Z,5.10
2019-03-13T08:32:15.906Z,5.10
2019-03-13T08:34:53.234Z,5.20
2019-03-13T08:37:33.904Z,5.20
2019-03-13T08:40:25.067Z,5.20
2019-03-13T08:43:01.385Z,5.10
2019-03-13T08:45:42.354Z,5.20
2019-03-13T08:48:30.736Z,5.40
2019-03-13T08:51:27.594Z,5.60
2019-03-13T08:54:14.203Z,5.80
2019-03-13T08:57:02.094Z,5.90
2019-03-13T08:59:39.409Z,5.90
2019-03-13T09:02:33.182Z,5.70
2019-03-13T09:05:16.076Z,5.60
2019-03-13T09:08:14.034Z,5.80
2019-03-13T09:10:56.717Z,5.90
2019-03-13T09:13:34.062Z,6.00
2019-03-13T09:16:11.337Z,6.00
2019-03-13T09:18:58.349Z,6.00
2019-03-13T09:21:46.539Z,5.90
2019-03-13T09:24:37.849Z,6.00
2019-03-13T09:27:43.904Z,6.10
2019-03-13T09:30:29.604Z,6.20
2019-03-13T09:33:33.275Z,6.30
2019-03-13T09:36:19.800Z,6.40
2019-03-13T09:39:20.401Z,6.50
2019-03-13T09:42:03.252Z,6.50
2019-03-13T09:44:47.505Z,6.30
2019-03-13T09:47:40.196Z,6.30
2019-03-13T09:50:16.554Z,6.30
2019-03-13T09:53:19.406Z,6.50
2019-03-13T09:55:55.269Z,6.30
2019-03-13T09:58:33.189Z,6.40
2019-03-13T10:01:30.646Z,6.20
2019-03-13T10:04:21.020Z,6.30
2019-03-13T10:07:06.010Z,6.60
2019-03-13T10:10:00.510Z,6.60
2019-03-13T10:12:44.283Z,6.80
2019-03-13T10:15:35.318Z,6.70
2019-03-13T10:18:22.033Z,6.60
2019-03-13T10:21:04.814Z,6.20
2019-03-13T10:23:42.656Z,6.10
2019-03-13T10:26:34.282Z,6.10
2019-03-13T10:29:22.171Z,6.00
2019-03-13T10:31:56.565Z,5.90
2019-03-13T10:34:44.689Z,5.50
2019-03-13T10:37:30.023Z,5.00
2019-03-13T10:40:13.331Z,4.50
2019-03-13T10:42:49.228Z,4.10
2019-03-13T10:45:32.998Z,3.80
2019-03-13T10:48:06.642Z,4.30
2019-03-13T10:51:09.719Z,4.90
2019-03-13T10:54:24.216Z,5.30
2019-03-13T10:57:11.320Z,5.70
2019-03-13T11:00:08.336Z,5.90
2019-03-13T11:02:46.765Z,6.00
2019-03-13T11:05:24.088Z,6.00
2019-03-13T11:08:10.941Z,5.90
2019-03-13T11:10:44.931Z,5.80
2019-03-13T11:13:18.819Z,5.90
2019-03-13T11:16:12.608Z,5.90
2019-03-13T11:18:56.807Z,5.90
2019-03-13T11:21:33.218Z,6.20
2019-03-13T11:24:20.171Z,6.20
2019-03-13T11:27:02.191Z,6.30
2019-03-13T11:29:50.075Z,6.40
2019-03-13T11:32:33.168Z,6.50
2019-03-13T11:35:14.995Z,6.60
2019-03-13T11:38:21.143Z,6.60
2019-03-13T11:41:24.318Z,6.40
2019-03-13T11:44:10.596Z,6.40
2019-03-13T11:47:10.473Z,6.30
2019-03-13T11:49:57.201Z,6.30
2019-03-13T11:52:53.806Z,6.30
2019-03-13T11:55:38.739Z,6.30
2019-03-13T11:58:26.760Z,6.30
2019-03-13T12:01:09.835Z,6.50
2019-03-13T12:03:54.534Z,6.50
2019-03-13T12:06:35.501Z,6.70
2019-03-13T12:09:37.778Z,6.80
2019-03-13T12:12:28.767Z,6.80
2019-03-13T12:15:25.979Z,7.00
2019-03-13T12:18:14.255Z,7.30
2019-03-13T12:20:50.165Z,7.50
2019-03-13T12:23:26.615Z,7.70
2019-03-13T12:26:10.085Z,7.90
2019-03-13T12:28:48.568Z,8.30
2019-03-13T12:31:42.423Z,8.40
2019-03-13T12:34:30.327Z,8.10
2019-03-13T12:37:09.462Z,7.50
2019-03-13T12:40:00.442Z,7.10
2019-03-13T12:43:06.443Z,6.90
2019-03-13T12:45:43.258Z,6.70
2019-03-13T12:48:43.609Z,6.40
2019-03-13T12:51:27.511Z,6.00
2019-03-13T12:54:15.395Z,5.80
2019-03-13T12:56:55.504Z,6.20
2019-03-13T12:59:36.511Z,6.70
2019-03-13T13:02:27.525Z,6.90
2019-03-13T13:05:21.705Z,7.10
2019-03-13T13:08:03.531Z,7.40
2019-03-13T13:11:00.686Z,7.50
2019-03-13T13:13:47.115Z,7.50
2019-03-13T13:16:23.855Z,7.40
2019-03-13T13:18:52.126Z,7.30
2019-03-13T13:21:21.460Z,7.10
2019-03-13T13:23:50.534Z,6.90
2019-03-13T13:26:19.501Z,6.80
2019-03-13T13:28:48.544Z,6.80
2019-03-13T13:31:17.380Z,6.80
2019-03-13T13:33:46.503Z,6.60
2019-03-13T13:36:15.322Z,6.50
2019-03-13T13:38:44.271Z,6.40
2019-03-13T13:41:13.167Z,6.40
2019-03-13T13:43:41.976Z,6.50
2019-03-13T13:46:20.523Z,6.30
2019-03-13T13:48:49.420Z,6.10
2019-03-13T13:51:18.483Z,6.00
2019-03-13T13:53:47.687Z,6.20
2019-03-13T13:56:16.654Z,6.60
2019-03-13T13:58:45.594Z,6.90
2019-03-13T14:01:14.728Z,7.10
2019-03-13T14:03:43.596Z,7.30
2019-03-13T14:06:12.590Z,7.10
2019-03-13T14:08:41.695Z,7.00
2019-03-13T14:11:10.540Z,6.70
2019-03-13T14:13:39.394Z,6.70
2019-03-13T14:16:08.348Z,6.90
2019-03-13T14:18:37.493Z,7.10
2019-03-13T14:21:06.298Z,7.20
2019-03-13T14:23:35.122Z,7.30
2019-03-13T14:26:04.271Z,7.20
2019-03-13T14:28:33.316Z,7.10
2019-03-13T14:31:02.525Z,7.30
2019-03-13T14:33:31.586Z,7.60
2019-03-13T14:36:01.056Z,8.00
2019-03-13T14:38:29.947Z,8.10
2019-03-13T14:40:59.281Z,8.10
2019-03-13T14:43:28.218Z,8.30
2019-03-13T14:45:57.353Z,8.40
2019-03-13T14:48:26.226Z,8.30
2019-03-13T14:50:55.355Z,8.40
2019-03-13T14:53:24.319Z,8.30
2019-03-13T14:55:55.798Z,8.10
2019-03-13T14:58:24.227Z,8.00
2019-03-13T15:00:53.111Z,7.90
2019-03-13T15:03:22.328Z,8.10
2019-03-13T15:05:51.166Z,8.30
2019-03-13T15:08:20.218Z,8.50
2019-03-13T15:10:49.269Z,8.40
2019-03-13T15:13:18.079Z,8.20
2019-03-13T15:15:46.890Z,7.90
2019-03-13T15:18:16.027Z,7.80
2019-03-13T15:20:45.075Z,7.80
2019-03-13T15:23:13.917Z,7.80
2019-03-13T15:25:42.960Z,7.80
2019-03-13T15:28:12.371Z,7.60
2019-03-13T15:30:41.489Z,7.60
2019-03-13T15:33:10.366Z,7.40
2019-03-13T15:35:39.483Z,7.40
2019-03-13T15:38:08.465Z,7.20
2019-03-13T15:40:37.528Z,7.00
2019-03-13T15:43:06.833Z,6.90
2019-03-13T15:45:35.907Z,6.80
2019-03-13T15:48:04.898Z,6.50
2019-03-13T15:50:34.134Z,6.40
2019-03-13T15:53:02.956Z,6.20
2019-03-13T15:55:31.949Z,6.10
2019-03-13T15:58:01.144Z,6.10
2019-03-13T16:00:30.296Z,6.10
2019-03-13T16:02:59.182Z,6.10
2019-03-13T16:05:28.376Z,6.00
2019-03-13T16:07:57.343Z,6.10
2019-03-13T16:10:26.228Z,6.10
2019-03-13T16:12:56.814Z,6.30
2019-03-13T16:15:27.425Z,6.40
2019-03-13T16:17:56.388Z,6.50
2019-03-13T16:20:25.588Z,6.60
2019-03-13T16:22:56.853Z,6.70
2019-03-13T16:25:25.795Z,6.70
2019-03-13T16:27:54.869Z,6.60
2019-03-13T16:30:25.083Z,6.40
2019-03-13T16:32:54.043Z,6.30
2019-03-13T16:35:26.331Z,6.20
2019-03-13T16:37:54.506Z,6.10
2019-03-13T16:40:23.643Z,6.10
2019-03-13T16:42:52.901Z,6.00
2019-03-13T16:45:23.894Z,5.80
2019-03-13T16:47:52.864Z,5.60
2019-03-13T16:50:21.908Z,5.50
2019-03-13T16:52:51.116Z,5.40
2019-03-13T16:55:20.002Z,5.40
2019-03-13T16:57:48.950Z,5.30
2019-03-13T17:00:19.958Z,5.30
2019-03-13T17:02:48.907Z,5.30
2019-03-13T17:05:17.983Z,5.20
2019-03-13T17:07:49.770Z,5.20
2019-03-13T17:10:18.326Z,5.10
2019-03-13T17:12:47.794Z,5.00
2019-03-13T17:15:18.203Z,5.00
2019-03-13T17:17:47.304Z,5.00
2019-03-13T17:20:21.097Z,5.00
2019-03-13T17:22:50.046Z,5.10
2019-03-13T17:25:19.341Z,5.10
2019-03-13T17:27:48.649Z,5.10
2019-03-13T17:30:19.756Z,5.10
2019-03-13T17:32:49.245Z,5.10
2019-03-13T17:35:18.610Z,5.10
2019-03-13T17:37:47.586Z,5.10
2019-03-13T17:40:18.372Z,5.20
2019-03-13T17:42:47.520Z,5.20
2019-03-13T17:45:17.892Z,5.30
2019-03-13T17:47:46.884Z,5.30
2019-03-13T17:50:16.519Z,5.30
2019-03-13T17:52:45.355Z,5.40
2019-03-13T17:55:14.598Z,5.40
2019-03-13T17:57:44.015Z,5.40
2019-03-13T18:00:19.240Z,5.40
2019-03-13T18:02:48.122Z,5.40
2019-03-13T18:05:17.195Z,5.40
2019-03-13T18:07:46.556Z,5.40
2019-03-13T18:10:16.898Z,5.40
2019-03-13T18:12:46.143Z,5.40
2019-03-13T18:15:15.502Z,5.40
2019-03-13T18:17:44.414Z,5.40
2019-03-13T18:20:14.845Z,5.30
2019-03-13T18:22:43.971Z,5.40
2019-03-13T18:25:13.859Z,5.40
2019-03-13T18:27:43.058Z,5.30
2019-03-13T18:30:17.668Z,5.30
2019-03-13T18:32:46.856Z,5.30
2019-03-13T18:35:15.942Z,5.30
2019-03-13T18:37:44.813Z,5.20
2019-03-13T18:40:13.842Z,5.10
2019-03-13T18:42:42.649Z,5.10
2019-03-13T18:45:14.513Z,5.10
2019-03-13T18:47:43.695Z,5.00
2019-03-13T18:50:13.219Z,4.80
2019-03-13T18:52:42.105Z,4.70
2019-03-13T18:55:12.075Z,4.60
2019-03-13T18:57:41.271Z,4.50
2019-03-13T19:00:14.420Z,4.40
2019-03-13T19:02:43.376Z,4.30
2019-03-13T19:05:12.735Z,4.20
2019-03-13T19:07:42.068Z,4.20
2019-03-13T19:10:11.791Z,4.10
2019-03-13T19:12:40.671Z,4.10
2019-03-13T19:15:12.287Z,4.00
2019-03-13T19:17:41.310Z,3.90
2019-03-13T19:20:12.038Z,3.80
2019-03-13T19:22:41.069Z,3.60
2019-03-13T19:25:10.466Z,3.60
2019-03-13T19:27:39.872Z,3.50
2019-03-13T19:30:12.944Z,3.40
2019-03-13T19:32:42.022Z,3.30
2019-03-13T19:35:10.963Z,3.30
2019-03-13T19:37:40.106Z,3.20
2019-03-13T19:40:10.037Z,3.20
2019-03-13T19:42:39.502Z,3.10
2019-03-13T19:45:11.370Z,3.00
2019-03-13T19:47:40.524Z,3.00
2019-03-13T19:50:09.770Z,2.90
2019-03-13T19:52:38.735Z,3.00
2019-03-13T19:55:08.793Z,2.90
2019-03-13T19:57:38.172Z,3.00
2019-03-13T20:00:10.439Z,3.10
2019-03-13T20:02:39.262Z,3.10
2019-03-13T20:05:08.839Z,3.10
2019-03-13T20:07:38.356Z,3.10
2019-03-13T20:10:10.422Z,3.10
2019-03-13T20:12:39.260Z,3.10
2019-03-13T20:15:10.187Z,3.10
2019-03-13T20:17:41.697Z,3.00
2019-03-13T20:20:10.918Z,2.90
2019-03-13T20:22:40.070Z,2.90
2019-03-13T20:25:10.306Z,2.80
2019-03-13T20:27:39.204Z,2.80
2019-03-13T20:30:10.020Z,2.70
2019-03-13T20:32:39.107Z,2.80
2019-03-13T20:35:08.195Z,2.90
2019-03-13T20:37:37.101Z,3.00
2019-03-13T20:40:07.057Z,3.10
2019-03-13T20:42:35.970Z,3.10
2019-03-13T20:45:05.579Z,3.20
2019-03-13T20:47:35.500Z,3.20
2019-03-13T20:50:04.743Z,3.20
2019-03-13T20:52:33.647Z,3.30
2019-03-13T20:55:02.756Z,3.30
2019-03-13T20:57:31.929Z,3.40
2019-03-13T21:00:01.250Z,3.30
2019-03-13T21:02:30.568Z,3.40
2019-03-13T21:04:59.873Z,3.40
2019-03-13T21:07:29.035Z,3.30
2019-03-13T21:09:57.850Z,3.10
2019-03-13T21:12:26.994Z,3.00
2019-03-13T21:14:56.173Z,2.90
2019-03-13T21:17:25.363Z,2.80
2019-03-13T21:19:54.475Z,2.80
2019-03-13T21:22:23.536Z,2.70
2019-03-13T21:24:52.387Z,2.70
2019-03-13T21:27:21.226Z,2.70
2019-03-13T21:29:50.143Z,2.70
2019-03-13T21:32:19.513Z,2.70
2019-03-13T21:34:48.813Z,2.80
2019-03-13T21:37:17.936Z,2.90
2019-03-13T21:39:47.075Z,2.90
2019-03-13T21:42:15.893Z,3.00
2019-03-13T21:44:44.960Z,3.00
2019-03-13T21:47:14.279Z,3.00
2019-03-13T21:49:43.508Z,3.00
2019-03-13T21:52:13.066Z,2.90
2019-03-13T21:54:42.281Z,3.00
2019-03-13T21:57:11.402Z,3.00
2019-03-13T21:59:41.116Z,3.00
2019-03-13T22:02:10.014Z,3.00
2019-03-13T22:04:39.126Z,3.00
2019-03-13T22:07:07.953Z,3.00
2019-03-13T22:09:36.750Z,3.00
2019-03-13T22:12:05.724Z,2.90
2019-03-13T22:14:34.850Z,2.90
2019-03-13T22:17:03.716Z,3.00
2019-03-13T22:19:32.549Z,3.00
2019-03-13T22:22:01.372Z,3.10
2019-03-13T22:24:30.459Z,3.10
2019-03-13T22:26:59.319Z,3.10
2019-03-13T22:29:28.403Z,3.10
2019-03-13T22:31:57.584Z,3.10
2019-03-13T22:34:26.744Z,3.10
2019-03-13T22:36:55.537Z,3.20
2019-03-13T22:39:24.602Z,3.20
2019-03-13T22:41:53.483Z,3.20
2019-03-13T22:44:22.330Z,3.20
2019-03-13T22:46:51.438Z,3.30
2019-03-13T22:49:20.661Z,3.30
2019-03-13T22:51:49.711Z,3.30
2019-03-13T22:54:20.208Z,3.30
2019-03-13T22:56:49.614Z,3.30
2019-03-13T22:59:18.816Z,3.30
2019-03-13T23:01:48.275Z,3.40
2019-03-13T23:04:17.166Z,3.40
2019-03-13T23:06:46.243Z,3.50
2019-03-13T23:09:15.452Z,3.60
2019-03-13T23:11:44.495Z,3.60
2019-03-13T23:14:13.575Z,3.70
2019-03-13T23:16:42.381Z,3.70
2019-03-13T23:19:11.575Z,3.70
2019-03-13T23:21:40.395Z,3.70
2019-03-13T23:24:09.452Z,3.70
2019-03-13T23:26:38.517Z,3.60
2019-03-13T23:29:07.405Z,3.60
2019-03-13T23:31:36.270Z,3.50
2019-03-13T23:34:05.168Z,3.20
2019-03-13T23:36:34.160Z,3.00
2019-03-13T23:39:03.062Z,2.80
2019-03-13T23:41:31.947Z,2.60
2019-03-13T23:44:01.023Z,2.40
2019-03-13T23:46:30.090Z,2.30
2019-03-13T23:48:59.400Z,2.10
2019-03-13T23:51:28.450Z,1.90
2019-03-13T23:53:57.269Z,1.70
2019-03-13T23:56:26.073Z,1.70
2019-03-13T23:58:55.136Z,1.70
